Time;durP1;ratioP1;P1;durP2;ratioP2;P2;SDS_P1;SDS_P2;PMS_P1;PMS_P2;Temp;Humidity;BMP_temperature;BMP_pressure;BME280_temperature;BME280_humidity;BME280_pressure;Samples;Min_cycle;Max_cycle;Signal;HPM_P1;HPM_P2
2021/05/09 00:01:52;;;;;;;4.13;2.60;;;;;;;10.55;45.49;100594.00;5035250;28;20177;-67
2021/05/09 00:04:18;;;;;;;3.47;2.60;;;;;;;10.54;45.54;100581.59;5034995;28;20199;-67
2021/05/09 00:06:43;;;;;;;2.83;2.10;;;;;;;10.57;45.52;100576.09;5035117;28;20707;-67
2021/05/09 00:09:08;;;;;;;3.57;2.20;;;;;;;10.56;45.91;100570.84;5034970;28;20176;-67
2021/05/09 00:11:34;;;;;;;4.00;2.40;;;;;;;10.47;46.27;100576.69;5035376;28;20251;-67
2021/05/09 00:13:59;;;;;;;5.70;2.37;;;;;;;10.52;45.33;100572.81;5035398;28;20281;-68
2021/05/09 00:16:24;;;;;;;4.70;2.20;;;;;;;10.49;45.60;100575.66;5033928;28;20663;-68
2021/05/09 00:18:50;;;;;;;3.80;2.40;;;;;;;10.43;45.87;100575.16;5035009;28;20187;-68
2021/05/09 00:21:15;;;;;;;4.17;2.40;;;;;;;10.46;46.78;100577.66;5034794;28;20179;-68
2021/05/09 00:23:40;;;;;;;3.40;2.47;;;;;;;10.52;46.24;100580.81;5034353;28;20239;-68
2021/05/09 00:26:06;;;;;;;4.47;2.27;;;;;;;10.42;46.52;100576.97;5033446;28;20203;-68
2021/05/09 00:28:31;;;;;;;2.83;2.13;;;;;;;10.26;47.95;100568.94;5034490;28;20176;-68
2021/05/09 00:30:56;;;;;;;3.17;2.37;;;;;;;10.12;47.92;100567.97;5033703;28;20217;-68
2021/05/09 00:33:22;;;;;;;2.80;2.20;;;;;;;10.10;47.61;100564.53;5034509;28;20631;-68
2021/05/09 00:35:47;;;;;;;2.87;1.97;;;;;;;10.01;47.62;100571.19;5016661;28;20645;-68
2021/05/09 00:38:13;;;;;;;3.03;2.10;;;;;;;10.00;47.38;100574.81;5016593;28;20199;-68
2021/05/09 00:40:38;;;;;;;3.93;2.20;;;;;;;9.95;47.97;100574.19;5034147;28;20292;-68
2021/05/09 00:43:04;;;;;;;2.77;2.07;;;;;;;9.91;48.42;100572.66;5034436;28;20193;-68
2021/05/09 00:45:29;;;;;;;3.73;2.30;;;;;;;9.86;49.51;100569.38;5034206;28;20540;-68
2021/05/09 00:47:54;;;;;;;3.60;2.23;;;;;;;9.81;49.58;100568.75;5034289;28;20177;-67
2021/05/09 00:50:20;;;;;;;2.87;2.17;;;;;;;9.81;49.70;100561.63;5033136;28;20287;-68
2021/05/09 00:52:47;;;;;;;3.43;2.20;;;;;;;9.73;49.63;100568.31;5033978;28;20230;-68
2021/05/09 00:55:12;;;;;;;2.47;2.00;;;;;;;9.62;50.30;100559.06;5033138;28;20578;-67
2021/05/09 00:57:39;;;;;;;3.17;2.23;;;;;;;9.48;51.75;100555.44;5033056;28;20169;-68
2021/05/09 01:00:07;;;;;;;3.40;2.40;;;;;;;9.41;51.61;100549.56;5034225;28;20172;-68
2021/05/09 01:02:33;;;;;;;4.00;2.70;;;;;;;9.44;52.21;100545.88;5032893;28;20195;-68
2021/05/09 01:04:59;;;;;;;4.80;2.50;;;;;;;9.43;52.33;100530.84;5034055;28;20173;-68
2021/05/09 01:07:24;;;;;;;3.97;2.50;;;;;;;9.47;51.83;100530.59;5032714;28;20690;-68
2021/05/09 01:09:50;;;;;;;3.03;2.47;;;;;;;9.57;51.32;100529.16;5033984;28;20193;-68
2021/05/09 01:12:15;;;;;;;5.70;2.70;;;;;;;9.71;51.76;100526.63;5033915;28;20203;-68
2021/05/09 01:14:42;;;;;;;4.77;2.20;;;;;;;9.74;51.08;100528.25;5033607;28;20202;-68
2021/05/09 01:17:08;;;;;;;4.00;2.57;;;;;;;9.70;50.63;100519.56;5032322;28;20182;-68
2021/05/09 01:19:34;;;;;;;4.83;2.20;;;;;;;9.81;50.65;100526.13;5033541;28;20176;-67
2021/05/09 01:21:59;;;;;;;2.60;2.10;;;;;;;9.64;50.44;100513.69;5032507;28;20187;-67
2021/05/09 01:24:24;;;;;;;4.17;2.40;;;;;;;9.60;50.74;100514.81;5033432;28;20618;-67
2021/05/09 01:26:50;;;;;;;4.47;2.13;;;;;;;9.62;50.77;100511.09;5033376;28;20629;-67
2021/05/09 01:29:15;;;;;;;6.07;2.20;;;;;;;9.70;52.05;100505.41;5033938;28;20184;-67
2021/05/09 01:31:46;;;;;;;2.83;2.47;;;;;;;9.62;52.19;100512.91;5032360;28;20684;-67
2021/05/09 01:34:11;;;;;;;3.33;2.37;;;;;;;9.75;52.38;100510.47;5032176;28;20210;-68
2021/05/09 01:36:36;;;;;;;3.50;2.33;;;;;;;9.74;53.63;100509.59;5032993;28;20177;-68
2021/05/09 01:39:02;;;;;;;4.70;2.30;;;;;;;9.62;53.45;100503.13;5033517;28;20206;-67
2021/05/09 01:41:27;;;;;;;3.57;2.70;;;;;;;9.48;53.96;100500.34;5033684;28;20180;-68
2021/05/09 01:43:52;;;;;;;5.13;3.00;;;;;;;9.42;54.31;100498.00;5032264;28;20204;-68
2021/05/09 01:46:18;;;;;;;4.83;2.60;;;;;;;9.45;55.30;100481.88;5033157;28;20261;-68
2021/05/09 01:48:43;;;;;;;2.97;2.57;;;;;;;9.42;54.99;100479.38;5033171;28;20183;-68
2021/05/09 01:51:08;;;;;;;7.10;2.60;;;;;;;9.42;56.15;100473.19;5031828;28;20212;-68
2021/05/09 01:53:34;;;;;;;5.33;2.97;;;;;;;9.45;55.01;100468.56;5033539;28;20207;-68
2021/05/09 01:55:59;;;;;;;3.73;2.73;;;;;;;9.49;55.19;100464.78;5033296;28;20180;-68
2021/05/09 01:58:24;;;;;;;5.90;2.77;;;;;;;9.55;54.71;100459.09;5033330;28;20176;-67
2021/05/09 02:00:50;;;;;;;4.03;2.50;;;;;;;9.52;55.08;100450.44;5033027;28;20203;-67
2021/05/09 02:03:15;;;;;;;4.83;2.70;;;;;;;9.50;54.62;100450.50;5033264;28;20584;-67
2021/05/09 02:05:40;;;;;;;3.10;2.50;;;;;;;9.58;55.22;100447.41;5032306;28;20191;-67
2021/05/09 02:08:05;;;;;;;4.53;2.73;;;;;;;9.61;55.81;100449.91;5032053;28;20187;-68
2021/05/09 02:10:31;;;;;;;3.50;2.73;;;;;;;9.56;54.77;100451.97;5033257;28;20207;-67
2021/05/09 02:12:56;;;;;;;5.07;2.90;;;;;;;9.61;55.68;100449.91;5033117;28;20207;-67
2021/05/09 02:15:22;;;;;;;4.87;2.60;;;;;;;9.55;54.55;100450.25;5033021;28;20172;-67
2021/05/09 02:17:47;;;;;;;3.17;2.70;;;;;;;9.58;55.77;100448.28;5032120;28;20659;-67
2021/05/09 02:20:13;;;;;;;3.90;2.70;;;;;;;9.57;54.69;100449.22;5033249;28;20180;-67
2021/05/09 02:22:38;;;;;;;4.23;2.97;;;;;;;9.60;54.98;100450.84;5032944;28;20180;-67
2021/05/09 02:25:04;;;;;;;3.63;2.80;;;;;;;9.61;55.29;100439.25;5032930;28;20184;-68
2021/05/09 02:27:30;;;;;;;5.23;2.40;;;;;;;9.66;54.49;100435.41;5033177;28;20177;-67
2021/05/09 02:29:55;;;;;;;2.70;2.27;;;;;;;9.60;54.78;100427.72;5032870;28;20254;-68
2021/05/09 02:32:20;;;;;;;2.53;2.30;;;;;;;9.71;53.07;100422.69;5015436;28;20180;-68
2021/05/09 02:34:46;;;;;;;8.03;2.60;;;;;;;9.78;53.02;100420.53;5032865;28;20683;-67
2021/05/09 02:37:11;;;;;;;3.37;2.40;;;;;;;9.80;53.70;100420.44;5032895;28;20188;-68
2021/05/09 02:39:36;;;;;;;3.50;2.37;;;;;;;9.66;53.51;100427.44;5032914;28;20230;-67
2021/05/09 02:42:03;;;;;;;3.57;2.70;;;;;;;9.78;53.43;100422.34;5031974;28;20173;-67
2021/05/09 02:44:28;;;;;;;4.03;2.50;;;;;;;9.82;52.76;100423.88;5032955;28;20242;-68
2021/05/09 02:46:54;;;;;;;4.17;2.50;;;;;;;9.88;53.04;100410.22;5034860;28;20255;-67
2021/05/09 02:49:19;;;;;;;4.30;2.60;;;;;;;9.86;52.99;100404.97;5036445;28;20227;-67
2021/05/09 02:51:44;;;;;;;5.00;2.60;;;;;;;9.89;52.80;100403.94;5036265;28;20227;-68
2021/05/09 02:54:10;;;;;;;5.33;2.70;;;;;;;9.79;52.94;100416.06;5036188;28;20196;-67
2021/05/09 02:56:35;;;;;;;3.87;2.33;;;;;;;9.89;52.77;100417.25;5036372;28;20572;-67
2021/05/09 02:59:01;;;;;;;3.33;2.70;;;;;;;10.00;52.70;100420.16;5036278;28;20199;-67
2021/05/09 03:01:27;;;;;;;3.40;2.60;;;;;;;9.88;52.81;100415.53;5034679;28;20176;-67
2021/05/09 03:03:52;;;;;;;3.27;2.47;;;;;;;9.84;52.53;100412.19;5037086;28;20541;-68
2021/05/09 03:06:17;;;;;;;4.13;2.47;;;;;;;9.84;52.88;100412.19;5036442;28;20179;-67
2021/05/09 03:08:42;;;;;;;3.20;2.30;;;;;;;9.97;52.60;100413.22;5035021;28;20184;-67
2021/05/09 03:11:08;;;;;;;4.13;2.47;;;;;;;9.83;52.14;100426.47;5034579;28;20192;-67
2021/05/09 03:13:33;;;;;;;2.77;2.40;;;;;;;9.74;52.67;100440.31;5035856;28;20203;-67
2021/05/09 03:15:59;;;;;;;4.23;2.70;;;;;;;9.73;52.92;100443.94;5036121;28;20176;-67
2021/05/09 03:18:25;;;;;;;3.80;2.20;;;;;;;9.82;52.90;100427.41;5035037;28;20172;-67
2021/05/09 03:20:50;;;;;;;4.07;2.37;;;;;;;9.99;51.92;100419.31;5035765;28;20704;-67
2021/05/09 03:23:16;;;;;;;4.10;2.30;;;;;;;9.97;51.95;100425.69;5035558;28;20240;-67
2021/05/09 03:25:41;;;;;;;7.63;2.40;;;;;;;9.91;52.28;100418.03;5036074;28;20215;-67
2021/05/09 03:28:06;;;;;;;3.13;2.10;;;;;;;9.93;52.18;100421.47;5035646;28;20176;-67
2021/05/09 03:30:32;;;;;;;4.20;2.50;;;;;;;9.98;51.39;100424.72;5035374;28;20307;-67
2021/05/09 03:32:57;;;;;;;2.90;2.30;;;;;;;10.00;51.99;100423.69;5057444;22;20742;-72
2021/05/09 03:35:22;;;;;;;3.13;1.90;;;;;;;10.11;50.87;100417.78;5035255;28;20200;-70
2021/05/09 03:37:48;;;;;;;2.47;2.00;;;;;;;10.11;51.61;100411.56;5037096;28;20217;-72
2021/05/09 03:40:14;;;;;;;3.27;2.20;;;;;;;10.13;51.02;100415.00;5035703;28;20204;-69
2021/05/09 03:42:39;;;;;;;2.67;2.00;;;;;;;10.09;51.57;100406.34;5036673;28;20211;-71
2021/05/09 03:45:05;;;;;;;3.23;2.20;;;;;;;10.21;51.08;100400.31;5036289;28;20219;-72
2021/05/09 03:47:32;;;;;;;3.63;1.97;;;;;;;10.31;51.05;100393.50;5036455;28;20210;-70
2021/05/09 03:49:57;;;;;;;3.37;2.10;;;;;;;10.30;51.01;100389.09;5037572;28;20208;-69
2021/05/09 03:52:23;;;;;;;2.47;2.00;;;;;;;10.31;50.52;100395.28;5036511;28;20188;-71
2021/05/09 03:54:48;;;;;;;5.03;2.03;;;;;;;10.27;50.77;100396.44;5036233;28;20199;-72
2021/05/09 03:57:14;;;;;;;4.27;2.40;;;;;;;10.42;51.16;100400.03;5035739;28;20168;-73
2021/05/09 03:59:39;;;;;;;3.50;2.30;;;;;;;10.24;51.18;100394.81;5036548;28;20183;-73
2021/05/09 04:02:05;;;;;;;5.23;2.30;;;;;;;10.27;50.14;100401.75;5037577;28;20180;-69
2021/05/09 04:04:30;;;;;;;2.70;2.20;;;;;;;10.28;50.78;100393.66;5036852;28;20200;-70
2021/05/09 04:06:55;;;;;;;4.93;2.40;;;;;;;10.38;51.30;100391.31;5038247;28;20180;-70
2021/05/09 04:09:21;;;;;;;3.17;2.13;;;;;;;10.45;50.28;100389.16;5036828;28;20180;-70
2021/05/09 04:11:46;;;;;;;3.23;2.10;;;;;;;10.51;49.90;100384.31;5034061;28;20207;-71
2021/05/09 04:14:11;;;;;;;2.60;2.40;;;;;;;10.59;50.35;100391.84;5033968;28;20664;-70
2021/05/09 04:16:36;;;;;;;2.90;2.47;;;;;;;10.62;50.04;100397.88;5033579;28;20181;-71
2021/05/09 04:19:02;;;;;;;5.63;2.63;;;;;;;10.59;49.67;100395.38;5035491;28;20191;-71
2021/05/09 04:21:27;;;;;;;4.50;2.30;;;;;;;10.54;50.03;100400.16;5033864;28;20625;-70
2021/05/09 04:23:52;;;;;;;5.40;2.30;;;;;;;10.72;49.36;100389.31;5033694;28;20572;-71
2021/05/09 04:26:18;;;;;;;3.90;2.17;;;;;;;10.69;49.72;100386.81;5037907;28;20180;-71
2021/05/09 04:28:43;;;;;;;3.27;2.30;;;;;;;10.68;49.63;100393.09;5036287;28;20564;-71
2021/05/09 04:31:08;;;;;;;5.00;2.20;;;;;;;10.76;50.31;100385.50;5035328;28;20204;-71
2021/05/09 04:33:34;;;;;;;3.73;2.37;;;;;;;10.77;49.50;100385.41;5034873;28;20215;-71
2021/05/09 04:35:59;;;;;;;2.57;1.87;;;;;;;10.85;49.10;100382.28;5033245;28;20208;-71
2021/05/09 04:38:25;;;;;;;3.13;2.20;;;;;;;10.92;49.19;100387.16;5036582;28;20735;-72
2021/05/09 04:40:50;;;;;;;3.73;2.43;;;;;;;11.00;49.30;100384.00;5034640;28;20164;-71
2021/05/09 04:43:17;;;;;;;2.87;2.10;;;;;;;10.92;48.90;100376.47;5034789;28;20199;-71
2021/05/09 04:45:49;;;;;;;3.17;2.07;;;;;;;11.04;49.11;100377.50;5035091;28;20176;-70
2021/05/09 04:48:15;;;;;;;3.43;2.03;;;;;;;11.02;49.69;100391.91;5033199;28;20183;-70
2021/05/09 04:50:40;;;;;;;7.83;2.27;;;;;;;10.99;49.42;100381.44;5033024;28;20200;-70
2021/05/09 04:53:30;;;;;;;3.60;2.20;;;;;;;11.07;49.69;100365.78;5032927;28;20191;-72
2021/05/09 04:55:57;;;;;;;3.17;2.07;;;;;;;11.18;49.27;100368.66;5033258;28;20164;-70
2021/05/09 04:58:23;;;;;;;3.93;2.17;;;;;;;11.18;48.71;100382.03;5033419;28;20176;-71
2021/05/09 05:00:56;;;;;;;3.23;2.20;;;;;;;11.24;49.26;100374.47;5032902;28;20172;-71
2021/05/09 05:03:22;;;;;;;4.03;1.83;;;;;;;11.33;48.87;100374.84;5016232;28;20700;-71
2021/05/09 05:05:47;;;;;;;4.13;2.33;;;;;;;11.44;49.10;100385.69;5034126;28;20183;-70
2021/05/09 05:08:13;;;;;;;2.77;2.07;;;;;;;11.29;49.49;100387.53;5033171;28;20182;-71
2021/05/09 05:10:38;;;;;;;4.93;2.23;;;;;;;11.35;49.73;100389.81;5032067;28;20204;-69
2021/05/09 05:13:15;;;;;;;3.70;2.07;;;;;;;11.45;48.98;100382.06;5034367;28;20184;-74
2021/05/09 05:15:41;;;;;;;2.63;2.17;;;;;;;11.37;49.42;100381.72;5033740;28;20312;-75
2021/05/09 05:18:06;;;;;;;2.30;1.83;;;;;;;11.50;48.70;100364.78;5034104;28;20180;-71
2021/05/09 05:20:31;;;;;;;3.37;2.20;;;;;;;11.45;49.57;100384.75;5034265;28;20172;-72
2021/05/09 05:22:57;;;;;;;2.37;1.80;;;;;;;11.50;48.86;100364.78;5033480;28;20203;-71
2021/05/09 05:25:22;;;;;;;8.03;2.23;;;;;;;11.51;49.41;100379.00;5033856;28;20631;-72
2021/05/09 05:27:47;;;;;;;3.67;2.30;;;;;;;11.69;48.73;100376.97;5033257;28;20172;-70
2021/05/09 05:30:13;;;;;;;4.07;2.33;;;;;;;11.63;48.94;100372.91;5033679;28;20203;-71
2021/05/09 05:32:40;;;;;;;5.40;2.40;;;;;;;11.67;49.18;100376.22;5033672;28;20180;-70
2021/05/09 05:35:06;;;;;;;3.30;2.00;;;;;;;11.74;49.29;100374.88;5032212;28;20210;-71
2021/05/09 05:37:31;;;;;;;3.27;2.10;;;;;;;11.87;48.85;100373.97;5032346;28;20263;-71
2021/05/09 05:39:56;;;;;;;3.93;2.30;;;;;;;11.83;48.61;100372.47;5033623;28;20706;-71
2021/05/09 05:42:22;;;;;;;4.23;1.90;;;;;;;11.98;49.27;100378.66;5033563;28;20172;-70
2021/05/09 05:44:47;;;;;;;2.70;2.30;;;;;;;12.01;48.57;100381.13;5033635;28;20200;-70
2021/05/09 05:47:12;;;;;;;3.40;2.20;;;;;;;12.17;48.77;100381.81;5033774;28;20536;-70
2021/05/09 05:49:38;;;;;;;2.67;1.90;;;;;;;12.23;48.62;100377.88;5033993;28;20227;-70
2021/05/09 05:52:03;;;;;;;3.00;2.23;;;;;;;12.11;48.56;100379.56;5033611;28;20176;-71
2021/05/09 05:54:28;;;;;;;2.50;2.07;;;;;;;12.35;48.64;100373.53;5031971;28;20541;-71
2021/05/09 05:56:54;;;;;;;3.13;1.97;;;;;;;12.37;48.63;100388.53;5032281;28;20198;-69
2021/05/09 05:59:19;;;;;;;3.73;1.90;;;;;;;12.42;48.14;100391.75;5032106;28;20222;-72
2021/05/09 06:01:44;;;;;;;3.43;2.23;;;;;;;12.56;47.85;100382.75;5033380;28;20218;-70
2021/05/09 06:04:09;;;;;;;3.47;2.30;;;;;;;12.53;47.69;100385.66;5032442;28;20257;-72
2021/05/09 06:06:35;;;;;;;2.60;2.23;;;;;;;12.71;47.86;100389.75;5033455;28;20552;-71
2021/05/09 06:09:02;;;;;;;3.80;1.90;;;;;;;12.69;48.00;100383.66;5033869;28;20169;-71
2021/05/09 06:11:27;;;;;;;3.77;1.87;;;;;;;12.77;47.43;100402.72;5032274;28;20223;-71
2021/05/09 06:13:53;;;;;;;3.20;2.30;;;;;;;12.89;47.95;100389.44;5032157;28;20633;-70
2021/05/09 06:16:18;;;;;;;4.10;1.90;;;;;;;13.03;47.78;100395.56;5033235;28;20180;-70
2021/05/09 06:18:43;;;;;;;3.07;1.90;;;;;;;12.74;48.65;100386.88;5034362;28;20180;-70
2021/05/09 06:21:08;;;;;;;4.17;2.33;;;;;;;13.16;47.72;100384.84;5034108;28;20513;-70
2021/05/09 06:23:34;;;;;;;3.10;2.13;;;;;;;13.00;48.32;100394.91;5037349;28;20203;-70
2021/05/09 06:25:59;;;;;;;5.63;2.37;;;;;;;13.14;48.14;100384.94;5037036;28;20172;-71
2021/05/09 06:28:24;;;;;;;3.53;1.87;;;;;;;13.12;48.08;100386.03;5019522;28;20257;-71
2021/05/09 06:30:50;;;;;;;4.50;2.20;;;;;;;13.40;47.75;100384.97;5035983;28;20192;-71
2021/05/09 06:33:15;;;;;;;2.97;2.27;;;;;;;13.28;47.98;100392.03;5037534;28;20219;-71
2021/05/09 06:35:42;;;;;;;3.77;2.10;;;;;;;13.31;47.45;100391.81;5037960;28;20160;-71
2021/05/09 06:38:07;;;;;;;2.93;2.03;;;;;;;13.66;47.24;100380.38;5036320;28;20698;-71
2021/05/09 06:40:37;;;;;;;3.93;2.13;;;;;;;13.53;47.56;100382.25;5037394;28;20184;-70
2021/05/09 06:43:03;;;;;;;3.90;2.20;;;;;;;13.73;47.67;100373.59;5035717;28;20540;-69
2021/05/09 06:45:31;;;;;;;4.70;1.83;;;;;;;13.90;47.24;100373.22;5035431;28;20207;-70
2021/05/09 06:47:58;;;;;;;3.00;2.07;;;;;;;13.88;47.47;100377.84;5035607;28;20556;-72
2021/05/09 06:50:23;;;;;;;3.13;2.00;;;;;;;14.23;46.75;100374.38;5036485;28;20200;-70
2021/05/09 06:52:48;;;;;;;3.20;2.00;;;;;;;14.17;46.93;100369.47;5037058;28;20254;-70
2021/05/09 06:55:14;;;;;;;3.50;2.00;;;;;;;14.25;47.00;100375.97;5036731;28;20196;-71
2021/05/09 06:57:39;;;;;;;2.57;1.80;;;;;;;14.63;46.61;100373.09;5036745;28;20242;-71
2021/05/09 07:00:08;;;;;;;2.90;1.93;;;;;;;15.02;45.76;100374.50;5035389;28;20196;-71
2021/05/09 07:02:33;;;;;;;2.30;1.47;;;;;;;15.20;45.64;100380.25;5034918;28;20225;-71
2021/05/09 07:04:58;;;;;;;3.17;1.73;;;;;;;15.41;44.62;100366.94;5034514;28;20261;-69
2021/05/09 07:07:23;;;;;;;4.00;1.77;;;;;;;15.27;44.57;100373.44;5035003;28;20714;-70
2021/05/09 07:09:49;;;;;;;3.03;1.80;;;;;;;15.46;44.29;100378.16;5036021;28;20187;-70
2021/05/09 07:12:14;;;;;;;2.57;1.63;;;;;;;15.31;44.42;100372.19;5034866;28;20176;-70
2021/05/09 07:14:39;;;;;;;3.53;1.70;;;;;;;15.47;44.76;100379.88;5036233;28;20694;-71
2021/05/09 07:17:05;;;;;;;4.17;1.67;;;;;;;15.68;44.53;100361.19;5035967;28;20219;-70
2021/05/09 07:19:30;;;;;;;3.67;2.10;;;;;;;15.67;44.30;100359.50;5036398;28;20200;-70
2021/05/09 07:21:59;;;;;;;2.03;1.43;;;;;;;15.46;44.40;100351.28;5035050;28;20521;-70
2021/05/09 07:24:24;;;;;;;2.53;1.60;;;;;;;15.49;44.65;100344.78;5034877;28;20226;-71
2021/05/09 07:26:49;;;;;;;3.00;1.90;;;;;;;15.72;44.64;100362.66;5034881;28;20208;-71
2021/05/09 07:29:15;;;;;;;2.53;1.50;;;;;;;15.94;44.74;100367.97;5035963;28;20539;-70
2021/05/09 07:31:41;;;;;;;3.07;1.70;;;;;;;16.09;44.40;100355.09;5017955;28;20215;-70
2021/05/09 07:34:08;;;;;;;2.47;1.40;;;;;;;16.19;44.54;100352.47;5034452;28;20211;-70
2021/05/09 07:36:34;;;;;;;3.43;1.83;;;;;;;16.48;43.60;100358.97;5034652;28;20172;-71
2021/05/09 07:38:59;;;;;;;3.53;1.67;;;;;;;16.68;43.30;100359.97;5034679;28;20176;-70
2021/05/09 07:41:24;;;;;;;4.00;1.63;;;;;;;16.80;43.29;100352.69;5035689;28;20168;-70
2021/05/09 07:43:49;;;;;;;2.53;1.57;;;;;;;16.87;43.62;100353.88;5035419;28;20199;-71
2021/05/09 07:46:15;;;;;;;2.07;1.60;;;;;;;17.01;42.77;100353.50;5034231;28;20202;-71
2021/05/09 07:48:40;;;;;;;3.30;1.50;;;;;;;17.19;42.42;100353.75;5036088;28;20178;-72
2021/05/09 07:51:05;;;;;;;2.97;2.33;;;;;;;17.13;43.01;100363.25;5034351;28;20690;-71
2021/05/09 07:53:31;;;;;;;5.13;1.80;;;;;;;17.21;42.90;100353.63;5035597;28;20220;-71
2021/05/09 07:55:56;;;;;;;1.80;1.50;;;;;;;17.42;42.68;100357.94;5034994;28;20168;-71
2021/05/09 07:58:22;;;;;;;1.97;1.70;;;;;;;17.54;42.64;100361.41;5034003;28;20180;-71
2021/05/09 08:00:49;;;;;;;2.87;1.80;;;;;;;17.95;42.53;100357.72;5035564;28;20164;-70
2021/05/09 08:03:14;;;;;;;1.70;1.40;;;;;;;17.58;42.44;100359.31;5033756;28;20668;-71
2021/05/09 08:05:40;;;;;;;3.43;1.40;;;;;;;17.27;42.84;100364.72;5035296;28;20252;-71
2021/05/09 08:08:05;;;;;;;3.00;1.53;;;;;;;17.68;43.42;100357.50;5035092;28;20189;-71
2021/05/09 08:10:35;;;;;;;2.53;1.17;;;;;;;17.83;42.88;100361.50;5033855;28;20530;-71
2021/05/09 08:13:02;;;;;;;3.03;1.53;;;;;;;17.81;41.92;100348.16;5034678;28;20172;-71
2021/05/09 08:15:27;;;;;;;2.43;1.23;;;;;;;17.55;42.76;100357.72;5033605;28;20177;-70
2021/05/09 08:17:53;;;;;;;2.57;1.23;;;;;;;17.60;43.05;100355.47;5035723;28;20645;-71
2021/05/09 08:20:18;;;;;;;4.23;1.50;;;;;;;17.62;42.77;100345.38;5033967;28;20210;-71
2021/05/09 08:22:45;;;;;;;2.10;1.30;;;;;;;17.81;42.17;100345.44;5033679;28;20184;-71
2021/05/09 08:25:10;;;;;;;1.93;1.23;;;;;;;17.44;42.68;100345.19;5033546;28;20538;-71
2021/05/09 08:27:36;;;;;;;3.03;1.50;;;;;;;17.46;42.97;100347.75;5035034;28;20267;-72
2021/05/09 08:30:03;;;;;;;2.77;1.40;;;;;;;17.57;43.55;100353.06;5035014;28;20208;-71
2021/05/09 08:32:29;;;;;;;3.00;1.60;;;;;;;17.54;42.82;100349.78;5033735;28;20244;-71
2021/05/09 08:34:54;;;;;;;1.70;1.57;;;;;;;17.88;42.78;100348.47;5016971;28;20711;-71
2021/05/09 08:37:20;;;;;;;3.27;1.50;;;;;;;17.79;42.91;100360.94;5033697;28;20222;-72
2021/05/09 08:39:45;;;;;;;2.53;1.50;;;;;;;18.02;42.76;100366.94;5034968;28;20246;-70
2021/05/09 08:42:18;;;;;;;2.30;1.43;;;;;;;18.18;42.06;100361.00;5033563;28;20172;-71
2021/05/09 08:44:48;;;;;;;3.40;1.50;;;;;;;17.91;42.63;100364.38;5033549;28;20215;-71
2021/05/09 08:47:21;;;;;;;2.20;1.40;;;;;;;18.31;41.97;100360.72;5017251;28;20180;-72
2021/05/09 08:49:50;;;;;;;2.57;1.23;;;;;;;18.59;41.19;100364.44;5035476;28;20239;-71
2021/05/09 08:52:20;;;;;;;1.80;1.40;;;;;;;18.39;42.31;100352.75;5033028;28;20168;-71
2021/05/09 08:54:46;;;;;;;2.10;1.60;;;;;;;18.47;42.04;100355.59;5032931;28;20196;-72
2021/05/09 08:57:12;;;;;;;2.53;1.20;;;;;;;18.94;41.76;100342.16;5016781;28;20168;-71
2021/05/09 08:59:38;;;;;;;3.00;1.40;;;;;;;18.63;41.80;100350.50;5033282;28;20540;-71
2021/05/09 09:02:03;;;;;;;3.70;1.20;;;;;;;18.93;41.08;100338.63;5033097;28;20218;-71
2021/05/09 09:04:45;;;;;;;3.00;1.70;;;;;;;18.64;41.77;100343.25;5032947;28;20188;-70
2021/05/09 09:07:12;;;;;;;1.97;1.33;;;;;;;19.13;41.27;100336.72;5034224;28;20261;-71
2021/05/09 09:09:43;;;;;;;2.83;1.30;;;;;;;19.42;40.29;100341.16;5033023;28;20179;-72
2021/05/09 09:12:09;;;;;;;2.37;1.40;;;;;;;19.04;40.81;100343.88;5032779;28;20168;-71
2021/05/09 09:14:35;;;;;;;2.97;1.50;;;;;;;19.39;40.40;100331.50;5033982;28;20200;-72
2021/05/09 09:17:14;;;;;;;2.20;1.40;;;;;;;19.56;40.17;100337.97;5032946;28;20548;-72
2021/05/09 09:20:06;;;;;;;3.00;1.37;;;;;;;19.81;39.64;100336.41;5032836;28;20172;-71
2021/05/09 09:22:51;;;;;;;3.50;1.30;;;;;;;19.48;40.81;100340.56;5016204;28;20176;-71
2021/05/09 09:25:18;;;;;;;4.73;1.40;;;;;;;19.94;40.15;100326.06;5033892;28;20195;-73
2021/05/09 09:27:48;;;;;;;2.03;1.43;;;;;;;20.44;39.20;100336.38;5032928;28;20175;-71
2021/05/09 09:30:14;;;;;;;3.50;1.40;;;;;;;19.94;39.55;100350.44;5034175;28;20192;-71
2021/05/09 09:32:40;;;;;;;1.73;1.00;;;;;;;20.28;39.31;100340.63;5032587;28;20199;-70
2021/05/09 09:35:26;;;;;;;1.83;1.30;;;;;;;20.71;38.41;100346.25;5057252;22;20314;-69
2021/05/09 09:37:51;;;;;;;2.83;1.43;;;;;;;20.40;39.21;100332.28;5033474;28;20607;-69
2021/05/09 09:40:17;;;;;;;5.40;1.40;;;;;;;20.58;38.78;100336.69;5033517;28;20214;-69
2021/05/09 09:42:47;;;;;;;3.80;1.47;;;;;;;20.22;39.43;100338.53;5032953;28;20184;-68
2021/05/09 09:45:16;;;;;;;2.53;1.30;;;;;;;20.74;38.92;100332.38;5032218;28;20196;-67
2021/05/09 09:47:56;;;;;;;3.63;1.23;;;;;;;21.18;37.94;100344.00;5032110;28;20533;-68
2021/05/09 09:50:47;;;;;;;3.03;1.40;;;;;;;21.02;38.03;100333.06;5033479;28;20196;-67
2021/05/09 09:53:29;;;;;;;2.37;1.10;;;;;;;20.47;38.77;100322.53;5032894;28;20579;-68
2021/05/09 09:56:01;;;;;;;3.27;1.40;;;;;;;20.54;39.74;100319.03;5031807;28;20184;-68
2021/05/09 09:58:44;;;;;;;2.10;1.40;;;;;;;20.05;39.70;100314.97;5033508;28;20187;-68
2021/05/09 10:01:10;;;;;;;2.47;1.60;;;;;;;20.15;39.82;100299.53;5033578;28;20234;-68
2021/05/09 10:03:36;;;;;;;1.17;1.07;;;;;;;20.39;39.66;100298.00;5033106;28;20615;-67
2021/05/09 10:06:01;;;;;;;6.07;1.23;;;;;;;20.16;39.88;100298.50;5031747;28;20184;-68
2021/05/09 10:08:27;;;;;;;3.30;1.30;;;;;;;19.76;40.35;100311.66;5015235;28;20176;-68
2021/05/09 10:10:52;;;;;;;3.73;1.20;;;;;;;19.90;40.79;100319.25;5032134;28;20219;-68
2021/05/09 10:13:22;;;;;;;4.43;1.60;;;;;;;19.85;40.61;100310.72;5032876;28;20632;-68
2021/05/09 10:15:48;;;;;;;2.37;1.10;;;;;;;20.38;40.35;100301.72;5032157;28;20179;-68
2021/05/09 10:18:14;;;;;;;2.60;1.20;;;;;;;20.43;40.07;100297.56;5031633;28;20544;-68
2021/05/09 10:20:42;;;;;;;3.60;1.20;;;;;;;20.73;39.21;100300.84;5031506;28;20241;-67
2021/05/09 10:23:08;;;;;;;3.07;1.40;;;;;;;20.32;39.75;100307.78;5014993;28;20184;-70
2021/05/09 10:25:51;;;;;;;2.60;1.37;;;;;;;20.10;40.22;100299.16;5031831;28;20203;-68
2021/05/09 10:28:24;;;;;;;3.13;1.73;;;;;;;20.46;39.78;100309.97;5032583;28;20714;-69
2021/05/09 10:30:56;;;;;;;2.17;1.00;;;;;;;20.15;39.83;100291.41;5032551;28;20184;-68
2021/05/09 10:33:41;;;;;;;2.03;1.27;;;;;;;20.62;39.45;100299.25;5031332;28;20267;-69
2021/05/09 10:36:11;;;;;;;4.67;1.20;;;;;;;21.24;38.63;100289.16;5032746;28;20339;-68
2021/05/09 10:39:08;;;;;;;2.23;1.10;;;;;;;21.00;38.88;100291.69;5031643;28;20177;-68
2021/05/09 10:41:37;;;;;;;3.17;1.57;;;;;;;20.81;39.19;100282.78;5031843;28;20192;-68
2021/05/09 10:44:37;;;;;;;5.27;1.40;;;;;;;21.11;38.54;100275.97;5014493;28;20561;-67
2021/05/09 10:47:07;;;;;;;2.00;1.17;;;;;;;21.78;37.69;100276.06;5032361;28;20175;-68
2021/05/09 10:49:32;;;;;;;2.70;1.37;;;;;;;21.56;38.02;100273.97;5031297;28;20172;-68
2021/05/09 10:51:58;;;;;;;4.20;1.20;;;;;;;21.74;37.63;100285.56;5031053;28;20200;-68
2021/05/09 10:54:24;;;;;;;1.93;1.10;;;;;;;21.50;38.24;100279.03;5031107;28;20271;-68
2021/05/09 10:56:51;;;;;;;2.27;1.07;;;;;;;22.80;36.29;100282.91;5032332;28;20180;-68
2021/05/09 10:59:17;;;;;;;1.00;0.90;;;;;;;23.49;34.72;100271.31;5031127;28;20180;-68
2021/05/09 11:01:42;;;;;;;3.73;1.00;;;;;;;24.81;32.90;100291.97;5030953;28;20184;-68
2021/05/09 11:04:12;;;;;;;0.80;0.80;;;;;;;25.80;31.03;100272.38;5032684;28;20196;-67
2021/05/09 11:06:49;;;;;;;2.63;1.03;;;;;;;24.54;32.68;100261.56;5031409;28;20176;-68
2021/05/09 11:09:21;;;;;;;2.93;1.27;;;;;;;25.93;30.67;100257.16;5033727;28;20668;-68
2021/05/09 11:11:47;;;;;;;2.13;1.00;;;;;;;28.78;26.78;100257.53;5036224;28;20215;-68
2021/05/09 11:14:12;;;;;;;3.70;0.90;;;;;;;29.07;26.31;100278.22;5036007;28;20196;-69
2021/05/09 11:16:37;;;;;;;1.50;0.93;;;;;;;28.97;26.45;100264.06;5035706;28;20176;-68
2021/05/09 11:19:07;;;;;;;3.17;1.40;;;;;;;27.56;28.03;100250.38;5036340;28;20172;-68
2021/05/09 11:21:34;;;;;;;3.90;1.10;;;;;;;28.49;27.03;100261.56;5035846;28;20251;-69
2021/05/09 11:24:02;;;;;;;2.60;1.00;;;;;;;28.91;26.81;100266.59;5017746;28;20199;-68
2021/05/09 11:26:38;;;;;;;3.80;1.00;;;;;;;28.70;26.88;100268.75;5034229;28;20173;-68